createdAt,value
2023-02-01T00:00:28.250Z,3.33
2023-02-01T00:02:54.804Z,3.03
2023-02-01T00:05:21.403Z,3.35
2023-02-01T00:07:50.074Z,4.03
2023-02-01T00:10:17.102Z,4.28
2023-02-01T00:12:43.645Z,4.35
2023-02-01T00:15:10.729Z,4.07
2023-02-01T00:17:38.123Z,4.25
2023-02-01T00:20:05.237Z,3.85
2023-02-01T00:22:31.768Z,4.40
2023-02-01T00:24:58.355Z,4.03
2023-02-01T00:27:25.132Z,3.20
2023-02-01T00:29:51.680Z,5.10
2023-02-01T00:32:18.483Z,4.32
2023-02-01T00:34:45.086Z,3.75
2023-02-01T00:37:11.597Z,3.75
2023-02-01T00:39:38.132Z,4.22
2023-02-01T00:42:04.773Z,3.70
2023-02-01T00:44:34.197Z,3.22
2023-02-01T00:47:01.472Z,3.95
2023-02-01T00:49:29.261Z,4.38
2023-02-01T00:51:56.434Z,3.60
2023-02-01T00:54:23.679Z,3.92
2023-02-01T00:56:50.334Z,4.00
2023-02-01T00:59:18.731Z,3.58
2023-02-01T01:01:45.298Z,3.58
2023-02-01T01:04:11.980Z,3.65
2023-02-01T01:06:38.655Z,3.58
2023-02-01T01:09:07.779Z,4.47
2023-02-01T01:11:37.549Z,3.75
2023-02-01T01:14:07.622Z,3.28
2023-02-01T01:16:35.684Z,4.22
2023-02-01T01:19:02.905Z,4.38
2023-02-01T01:21:30.510Z,3.75
2023-02-01T01:23:57.134Z,3.70
2023-02-01T01:26:26.848Z,4.53
2023-02-01T01:28:57.240Z,4.13
2023-02-01T01:31:25.080Z,3.53
2023-02-01T01:33:53.960Z,3.42
2023-02-01T01:36:21.062Z,3.70
2023-02-01T01:38:47.802Z,4.00
2023-02-01T01:41:17.083Z,3.38
2023-02-01T01:43:59.284Z,4.05
2023-02-01T01:46:31.630Z,3.88
2023-02-01T01:49:05.323Z,4.45
2023-02-01T01:51:37.434Z,3.63
2023-02-01T01:54:19.379Z,3.25
2023-02-01T01:56:52.376Z,3.58
2023-02-01T01:59:20.075Z,3.58
2023-02-01T02:01:47.801Z,3.63
2023-02-01T02:04:14.626Z,4.00
2023-02-01T02:06:56.435Z,4.05
2023-02-01T02:09:23.367Z,3.55
2023-02-01T02:11:50.426Z,3.85
2023-02-01T02:14:20.488Z,4.13
2023-02-01T02:17:02.848Z,3.92
2023-02-01T02:19:51.247Z,3.25
2023-02-01T02:22:34.719Z,3.33
2023-02-01T02:25:38.907Z,4.18
2023-02-01T02:28:59.639Z,3.85
2023-02-01T02:31:59.978Z,3.58
2023-02-01T02:34:41.332Z,4.57
2023-02-01T02:37:25.172Z,3.75
2023-02-01T02:40:21.979Z,3.45
2023-02-01T02:43:11.857Z,4.10
2023-02-01T02:46:08.238Z,4.00
2023-02-01T02:48:52.264Z,3.17
2023-02-01T02:51:47.082Z,3.65
2023-02-01T02:54:37.917Z,4.07
2023-02-01T02:57:27.281Z,3.25
2023-02-01T03:00:17.119Z,3.95
2023-02-01T03:03:04.489Z,3.55
2023-02-01T03:05:36.449Z,4.53
2023-02-01T03:08:18.595Z,3.63
2023-02-01T03:11:00.281Z,3.33
2023-02-01T03:13:45.645Z,3.90
2023-02-01T03:16:34.477Z,3.67
2023-02-01T03:19:17.571Z,3.53
2023-02-01T03:21:51.765Z,4.55
2023-02-01T03:24:34.763Z,3.65
2023-02-01T03:27:42.979Z,3.10
2023-02-01T03:30:12.718Z,4.80
2023-02-01T03:33:01.638Z,4.00
2023-02-01T03:35:49.954Z,4.25
2023-02-01T03:38:37.506Z,3.53
2023-02-01T03:41:18.149Z,3.88
2023-02-01T03:43:58.948Z,3.70
2023-02-01T03:46:36.623Z,3.65
2023-02-01T03:49:08.944Z,3.80
2023-02-01T03:51:40.875Z,3.67
2023-02-01T03:54:13.224Z,4.07
2023-02-01T03:56:45.065Z,3.55
2023-02-01T03:59:13.111Z,3.97
2023-02-01T04:01:40.425Z,4.63
2023-02-01T04:04:07.912Z,4.13
2023-02-01T04:06:34.715Z,3.67
2023-02-01T04:09:04.692Z,4.80
2023-02-01T04:11:31.301Z,4.57
2023-02-01T04:13:57.904Z,3.83
2023-02-01T04:16:24.450Z,4.45
2023-02-01T04:21:18.323Z,4.50
2023-02-01T04:23:45.016Z,4.68
2023-02-01T04:26:11.591Z,4.03
2023-02-01T04:28:38.186Z,4.82
2023-02-01T04:31:05.135Z,4.03
2023-02-01T04:33:32.804Z,3.75
2023-02-01T04:35:59.675Z,4.75
2023-02-01T04:38:27.805Z,4.30
2023-02-01T04:40:54.293Z,3.85
2023-02-01T04:43:20.993Z,4.05
2023-02-01T04:45:49.553Z,4.13
2023-02-01T04:48:17.239Z,3.60
2023-02-01T04:50:46.940Z,4.82
2023-02-01T04:53:14.149Z,4.00
2023-02-01T04:55:40.786Z,4.50
2023-02-01T04:58:07.279Z,5.30
2023-02-01T05:00:33.857Z,5.22
2023-02-01T05:03:00.614Z,4.38
2023-02-01T05:05:28.135Z,6.22
2023-02-01T05:07:54.865Z,4.57
2023-02-01T05:10:22.585Z,4.90
2023-02-01T05:13:08.052Z,4.75
2023-02-01T05:15:34.685Z,5.53
2023-02-01T05:18:01.381Z,5.25
2023-02-01T05:20:28.159Z,4.55
2023-02-01T05:22:54.784Z,4.40
2023-02-01T05:25:21.543Z,4.72
2023-02-01T05:27:48.121Z,4.93
2023-02-01T05:30:14.916Z,4.68
2023-02-01T05:32:41.549Z,4.88
2023-02-01T05:35:08.778Z,4.85
2023-02-01T05:37:35.517Z,3.72
2023-02-01T05:40:02.216Z,4.85
2023-02-01T05:42:28.803Z,4.43
2023-02-01T05:44:55.405Z,4.30
2023-02-01T05:47:22.372Z,4.63
2023-02-01T05:49:49.013Z,5.45
2023-02-01T05:52:20.086Z,5.00
2023-02-01T05:54:50.499Z,4.18
2023-02-01T05:57:17.130Z,4.88
2023-02-01T05:59:45.529Z,4.32
2023-02-01T06:02:16.030Z,4.93
2023-02-01T06:04:42.641Z,3.80
2023-02-01T06:07:11.226Z,4.03
2023-02-01T06:09:37.992Z,4.50
2023-02-01T06:12:05.270Z,5.53
2023-02-01T06:14:31.934Z,4.22
2023-02-01T06:16:58.524Z,5.07
2023-02-01T06:19:25.224Z,4.38
2023-02-01T06:21:51.741Z,3.63
2023-02-01T06:24:18.413Z,4.55
2023-02-01T06:26:44.986Z,4.70
2023-02-01T06:29:11.860Z,3.72
2023-02-01T06:31:38.604Z,4.43
2023-02-01T06:34:05.217Z,3.83
2023-02-01T06:36:32.009Z,4.28
2023-02-01T06:39:00.193Z,5.00
2023-02-01T06:41:29.317Z,4.82
2023-02-01T06:43:56.665Z,3.60
2023-02-01T06:46:23.340Z,4.28
2023-02-01T06:48:51.295Z,5.03
2023-02-01T06:51:26.779Z,4.45
2023-02-01T06:53:53.526Z,5.00
2023-02-01T06:56:20.739Z,4.82
2023-02-01T06:58:47.669Z,3.65
2023-02-01T07:01:14.587Z,5.75
2023-02-01T07:03:41.462Z,4.07
2023-02-01T07:06:08.951Z,4.47
2023-02-01T07:08:38.133Z,4.05
2023-02-01T07:11:11.711Z,4.63
2023-02-01T07:13:38.704Z,3.92
2023-02-01T07:16:12.137Z,4.80
2023-02-01T07:18:38.805Z,4.72
2023-02-01T07:21:05.486Z,5.18
2023-02-01T07:23:32.083Z,5.47
2023-02-01T07:26:01.291Z,4.75
2023-02-01T07:28:31.403Z,4.55
2023-02-01T07:31:05.009Z,5.85
2023-02-01T07:33:31.864Z,5.15
2023-02-01T07:35:58.386Z,4.90
2023-02-01T07:38:24.988Z,4.65
2023-02-01T07:40:51.475Z,4.28
2023-02-01T07:43:18.114Z,4.82
2023-02-01T07:45:51.624Z,4.15
2023-02-01T07:48:18.476Z,4.57
2023-02-01T07:50:45.020Z,4.45
2023-02-01T07:53:11.590Z,4.82
2023-02-01T07:55:39.579Z,4.18
2023-02-01T07:58:06.180Z,4.43
2023-02-01T08:00:51.135Z,4.95
2023-02-01T08:03:17.784Z,3.63
2023-02-01T08:05:44.391Z,3.97
2023-02-01T08:08:11.530Z,4.38
2023-02-01T08:10:38.053Z,4.07
2023-02-01T08:13:04.585Z,4.43
2023-02-01T08:15:31.186Z,4.80
2023-02-01T08:17:59.368Z,4.15
2023-02-01T08:20:29.551Z,3.72
2023-02-01T08:22:56.252Z,3.70
2023-02-01T08:25:23.833Z,4.90
2023-02-01T08:27:50.910Z,5.00
2023-02-01T08:30:17.592Z,3.80
2023-02-01T08:32:46.463Z,4.63
2023-02-01T08:35:13.099Z,5.25
2023-02-01T08:37:39.729Z,4.97
2023-02-01T08:40:07.055Z,4.63
2023-02-01T08:42:51.687Z,6.75
2023-02-01T08:45:24.853Z,7.65
2023-02-01T08:47:54.832Z,8.07
2023-02-01T08:50:23.025Z,11.75
2023-02-01T08:52:50.367Z,10.43
2023-02-01T08:55:17.155Z,6.97
2023-02-01T08:57:44.099Z,5.03
2023-02-01T09:00:16.456Z,4.63
2023-02-01T09:02:43.964Z,4.30
2023-02-01T09:05:11.714Z,5.07
2023-02-01T09:07:39.396Z,3.75
2023-02-01T09:10:06.354Z,5.25
2023-02-01T09:12:34.771Z,4.75
2023-02-01T09:15:01.822Z,4.65
2023-02-01T09:17:30.271Z,4.75
2023-02-01T09:19:56.939Z,4.40
2023-02-01T09:22:23.573Z,4.15
2023-02-01T09:24:50.274Z,4.88
2023-02-01T09:27:16.817Z,4.28
2023-02-01T09:29:43.404Z,5.10
2023-02-01T09:32:10.163Z,5.18
2023-02-01T09:34:37.215Z,5.05
2023-02-01T09:37:03.870Z,4.95
2023-02-01T09:39:33.267Z,4.55
2023-02-01T09:42:14.805Z,5.10
2023-02-01T09:45:07.101Z,4.63
2023-02-01T09:47:35.601Z,4.05
2023-02-01T09:50:07.409Z,4.25
2023-02-01T09:53:00.379Z,4.28
2023-02-01T09:58:02.064Z,3.03
2023-02-01T10:00:34.744Z,4.25
2023-02-01T10:05:48.570Z,3.70
2023-02-01T10:08:36.233Z,3.80
2023-02-01T10:11:24.573Z,3.72
2023-02-01T10:13:55.572Z,4.25
2023-02-01T10:16:48.058Z,4.28
2023-02-01T10:19:33.520Z,4.80
2023-02-01T10:22:05.619Z,3.80
2023-02-01T10:24:58.116Z,4.63
2023-02-01T10:27:33.832Z,3.75
2023-02-01T10:30:20.570Z,4.35
2023-02-01T10:32:50.838Z,4.20
2023-02-01T10:35:22.943Z,4.63
2023-02-01T10:37:49.542Z,4.07
2023-02-01T10:40:23.294Z,3.53
2023-02-01T10:43:02.814Z,4.38
2023-02-01T10:45:31.701Z,3.83
2023-02-01T10:48:00.750Z,3.70
2023-02-01T10:50:56.172Z,4.65
2023-02-01T10:53:36.594Z,4.13
2023-02-01T10:56:11.349Z,3.88
2023-02-01T10:58:45.434Z,3.97
2023-02-01T11:01:31.670Z,5.45
2023-02-01T11:04:00.826Z,4.65
2023-02-01T11:06:41.979Z,3.60
2023-02-01T11:09:08.523Z,4.10
2023-02-01T11:11:47.292Z,5.07
2023-02-01T11:14:21.179Z,4.78
2023-02-01T11:16:50.728Z,6.40
2023-02-01T11:19:18.806Z,5.47
2023-02-01T11:21:49.924Z,6.88
2023-02-01T11:24:33.964Z,6.65
2023-02-01T11:27:06.412Z,4.50
2023-02-01T11:29:41.939Z,6.72
2023-02-01T11:32:10.520Z,4.22
2023-02-01T11:34:39.272Z,5.43
2023-02-01T11:37:26.292Z,5.22
2023-02-01T11:40:01.737Z,6.45
2023-02-01T11:42:29.705Z,6.13
2023-02-01T11:45:21.778Z,5.40
2023-02-01T11:50:31.291Z,5.18
2023-02-01T11:53:11.940Z,5.82
2023-02-01T11:55:59.736Z,10.75
2023-02-01T11:58:51.454Z,5.93
2023-02-01T12:01:27.301Z,9.38
2023-02-01T12:04:13.307Z,9.23
2023-02-01T12:06:54.722Z,10.75
2023-02-01T12:09:30.445Z,5.55
2023-02-01T12:12:29.902Z,6.45
2023-02-01T12:14:56.378Z,7.55
2023-02-01T12:17:50.005Z,8.55
2023-02-01T12:20:44.675Z,11.48
2023-02-01T12:23:26.801Z,9.05
2023-02-01T12:26:11.663Z,10.43
2023-02-01T12:29:01.424Z,7.18
2023-02-01T12:31:56.096Z,6.45
2023-02-01T12:34:52.089Z,6.68
2023-02-01T12:38:00.341Z,7.43
2023-02-01T12:40:54.618Z,5.88
2023-02-01T12:43:29.643Z,6.22
2023-02-01T12:46:04.745Z,5.28
2023-02-01T12:48:37.885Z,4.60
2023-02-01T12:51:19.276Z,4.72
2023-02-01T12:53:56.421Z,5.82
2023-02-01T12:56:38.247Z,5.65
2023-02-01T12:59:17.382Z,7.18
2023-02-01T13:01:53.150Z,5.20
2023-02-01T13:04:43.303Z,7.90
2023-02-01T13:07:21.212Z,9.30
2023-02-01T13:09:54.628Z,6.90
2023-02-01T13:12:32.969Z,6.25
2023-02-01T13:15:06.041Z,6.82
2023-02-01T13:17:34.826Z,8.52
2023-02-01T13:20:16.205Z,4.95
2023-02-01T13:22:47.163Z,4.18
2023-02-01T13:25:26.884Z,4.53
2023-02-01T13:27:57.064Z,4.15
2023-02-01T13:30:31.525Z,5.35
2023-02-01T13:33:54.307Z,5.68
2023-02-01T13:36:08.911Z,5.20
2023-02-01T13:38:56.042Z,5.43
2023-02-01T13:41:27.721Z,4.95
2023-02-01T13:43:59.505Z,5.40
2023-02-01T13:46:27.158Z,4.80
2023-02-01T13:48:58.383Z,3.90
2023-02-01T13:51:55.749Z,4.72
2023-02-01T13:54:38.328Z,4.57
2023-02-01T13:57:26.435Z,4.43
2023-02-01T13:59:55.279Z,4.57
2023-02-01T14:02:43.690Z,4.18
2023-02-01T14:05:13.324Z,4.32
2023-02-01T14:08:10.809Z,4.78
2023-02-01T14:10:48.364Z,4.05
2023-02-01T14:13:24.359Z,4.82
2023-02-01T14:16:03.508Z,4.85
2023-02-01T14:18:36.394Z,4.50
2023-02-01T14:21:29.939Z,4.22
2023-02-01T14:24:17.648Z,3.92
2023-02-01T14:26:47.440Z,3.72
2023-02-01T14:29:21.089Z,4.72
2023-02-01T14:32:00.611Z,4.18
2023-02-01T14:34:49.183Z,4.60
2023-02-01T14:37:18.690Z,4.10
2023-02-01T14:39:45.259Z,4.45
2023-02-01T14:42:26.338Z,4.68
2023-02-01T14:45:22.284Z,4.13
2023-02-01T14:48:07.427Z,4.85
2023-02-01T14:50:34.363Z,5.05
2023-02-01T14:53:13.472Z,5.72
2023-02-01T14:56:11.455Z,3.95
2023-02-01T14:58:43.806Z,4.15
2023-02-01T15:01:21.193Z,4.95
2023-02-01T15:04:04.506Z,5.53
2023-02-01T15:06:39.352Z,4.45
2023-02-01T15:09:30.382Z,3.67
2023-02-01T15:12:06.341Z,4.60
2023-02-01T15:14:43.492Z,4.60
2023-02-01T15:17:20.910Z,5.22
2023-02-01T15:19:58.879Z,7.78
2023-02-01T15:22:27.250Z,10.60
2023-02-01T15:24:56.622Z,5.60
2023-02-01T15:27:23.908Z,4.93
2023-02-01T15:29:50.758Z,4.95
2023-02-01T15:32:39.168Z,8.60
2023-02-01T15:35:07.187Z,9.88
2023-02-01T15:37:33.719Z,6.35
2023-02-01T15:40:10.587Z,8.15
2023-02-01T15:42:55.800Z,7.72
2023-02-01T15:45:32.898Z,5.57
2023-02-01T15:48:00.874Z,5.30
2023-02-01T15:50:29.901Z,4.95
2023-02-01T15:52:56.643Z,4.82
2023-02-01T15:55:42.148Z,3.85
2023-02-01T15:58:18.304Z,3.15
2023-02-01T16:00:51.433Z,3.53
2023-02-01T16:03:40.310Z,3.67
2023-02-01T16:06:12.995Z,5.32
2023-02-01T16:11:40.553Z,5.30
2023-02-01T16:14:07.203Z,4.20
2023-02-01T16:16:33.772Z,4.40
2023-02-01T16:19:00.413Z,5.20
2023-02-01T16:21:26.946Z,5.47
2023-02-01T16:23:54.394Z,4.65
2023-02-01T16:26:21.709Z,4.30
2023-02-01T16:28:48.601Z,3.50
2023-02-01T16:31:20.705Z,3.63
2023-02-01T16:33:51.434Z,5.57
2023-02-01T16:36:19.192Z,4.18
2023-02-01T16:38:48.875Z,3.80
2023-02-01T16:41:17.499Z,4.78
2023-02-01T16:43:44.231Z,3.95
2023-02-01T16:46:16.809Z,3.67
2023-02-01T16:51:17.795Z,4.50
2023-02-01T16:53:54.173Z,4.53
2023-02-01T16:56:24.267Z,5.35
2023-02-01T16:58:51.431Z,4.65
2023-02-01T17:01:19.764Z,5.10
2023-02-01T17:03:46.877Z,4.57
2023-02-01T17:06:17.935Z,5.13
2023-02-01T17:08:48.962Z,6.93
2023-02-01T17:11:15.562Z,4.75
2023-02-01T17:13:42.963Z,4.47
2023-02-01T17:16:19.014Z,4.95
2023-02-01T17:18:54.117Z,5.20
2023-02-01T17:21:21.031Z,5.15
2023-02-01T17:23:47.954Z,4.45
2023-02-01T17:26:14.558Z,4.90
2023-02-01T17:28:41.287Z,4.15
2023-02-01T17:31:14.471Z,4.80
2023-02-01T17:33:41.354Z,4.40
2023-02-01T17:36:18.051Z,4.75
2023-02-01T17:39:10.261Z,4.38
2023-02-01T17:41:41.970Z,4.13
2023-02-01T17:46:36.462Z,4.50
2023-02-01T17:49:03.799Z,4.20
2023-02-01T17:51:31.154Z,4.35
2023-02-01T17:53:57.706Z,3.80
2023-02-01T17:56:25.724Z,4.45
2023-02-01T17:58:52.581Z,4.72
2023-02-01T18:01:24.699Z,4.15
2023-02-01T18:03:51.944Z,4.68
2023-02-01T18:06:30.839Z,4.43
2023-02-01T18:08:57.941Z,4.45
2023-02-01T18:11:30.461Z,4.22
2023-02-01T18:13:57.436Z,5.47
2023-02-01T18:16:25.319Z,5.18
2023-02-01T18:18:52.219Z,5.55
2023-02-01T18:21:21.755Z,4.97
2023-02-01T18:23:48.760Z,4.80
2023-02-01T18:26:17.573Z,4.20
2023-02-01T18:28:44.884Z,4.15
2023-02-01T18:31:31.535Z,6.22
2023-02-01T18:33:59.931Z,4.90
2023-02-01T18:36:27.817Z,5.15
2023-02-01T18:38:56.394Z,5.93
2023-02-01T18:41:23.822Z,10.50
2023-02-01T18:43:51.699Z,7.63
2023-02-01T18:46:19.114Z,16.83
2023-02-01T18:48:45.669Z,11.15
2023-02-01T18:51:17.332Z,6.28
2023-02-01T18:53:44.179Z,7.03
2023-02-01T18:56:13.060Z,8.02
2023-02-01T18:58:40.636Z,7.07
2023-02-01T19:01:21.551Z,5.03
2023-02-01T19:03:53.657Z,3.95
2023-02-01T19:06:24.088Z,4.55
2023-02-01T19:08:51.266Z,4.38
2023-02-01T19:11:18.477Z,4.00
2023-02-01T19:13:45.033Z,4.63
2023-02-01T19:16:13.558Z,4.43
2023-02-01T19:18:40.216Z,4.05
2023-02-01T19:21:10.101Z,3.67
2023-02-01T19:23:39.340Z,4.20
2023-02-01T19:26:11.875Z,4.38
2023-02-01T19:28:38.661Z,4.13
2023-02-01T19:31:07.261Z,4.85
2023-02-01T19:33:34.274Z,3.85
2023-02-01T19:36:05.936Z,3.72
2023-02-01T19:38:33.888Z,4.13
2023-02-01T19:41:00.830Z,5.40
2023-02-01T19:43:28.082Z,5.03
2023-02-01T19:45:55.833Z,4.68
2023-02-01T19:48:22.624Z,5.10
2023-02-01T19:50:49.842Z,4.72
2023-02-01T19:53:16.681Z,4.97
2023-02-01T19:55:47.048Z,4.20
2023-02-01T19:58:14.428Z,4.07
2023-02-01T20:00:40.721Z,4.55
2023-02-01T20:03:07.409Z,3.63
2023-02-01T20:05:34.007Z,4.38
2023-02-01T20:08:01.463Z,4.90
2023-02-01T20:10:28.138Z,5.40
2023-02-01T20:12:54.845Z,4.80
2023-02-01T20:15:24.463Z,4.05
2023-02-01T20:17:51.378Z,5.88
2023-02-01T20:20:18.041Z,6.13
2023-02-01T20:22:45.336Z,5.25
2023-02-01T20:25:12.958Z,7.88
2023-02-01T20:27:40.436Z,8.05
2023-02-01T20:30:07.719Z,7.57
2023-02-01T20:32:34.357Z,6.75
2023-02-01T20:35:00.957Z,5.40
2023-02-01T20:37:27.650Z,6.13
2023-02-01T20:39:54.508Z,8.02
2023-02-01T20:42:21.206Z,4.93
2023-02-01T20:44:47.763Z,7.75
2023-02-01T20:47:14.308Z,6.55
2023-02-01T20:49:41.141Z,7.68
2023-02-01T20:52:07.768Z,5.63
2023-02-01T20:54:34.359Z,6.35
2023-02-01T20:57:00.932Z,10.00
2023-02-01T20:59:27.731Z,5.30
2023-02-01T21:01:54.326Z,8.98
2023-02-01T21:04:23.440Z,10.32
2023-02-01T21:06:50.101Z,4.97
2023-02-01T21:09:17.166Z,4.60
2023-02-01T21:11:44.198Z,7.50
2023-02-01T21:14:11.992Z,5.18
2023-02-01T21:16:39.041Z,4.05
2023-02-01T21:19:06.040Z,4.28
2023-02-01T21:21:32.654Z,4.25
2023-02-01T21:23:59.802Z,5.03
2023-02-01T21:26:27.511Z,5.50
2023-02-01T21:28:55.856Z,8.13
2023-02-01T21:31:25.563Z,5.70
2023-02-01T21:33:52.659Z,5.55
2023-02-01T21:36:20.659Z,7.63
2023-02-01T21:38:51.396Z,5.82
2023-02-01T21:41:38.696Z,9.25
2023-02-01T21:44:05.751Z,4.85
2023-02-01T21:46:32.383Z,11.15
2023-02-01T21:49:05.427Z,6.15
2023-02-01T21:51:35.125Z,10.63
2023-02-01T21:54:02.205Z,5.93
2023-02-01T21:56:29.229Z,7.68
2023-02-01T21:58:55.856Z,5.75
2023-02-01T22:01:22.788Z,5.32
2023-02-01T22:03:49.597Z,7.43
2023-02-01T22:06:27.094Z,5.30
2023-02-01T22:08:54.294Z,7.20
2023-02-01T22:11:20.959Z,6.82
2023-02-01T22:13:47.853Z,5.35
2023-02-01T22:16:17.903Z,4.78
2023-02-01T22:18:45.466Z,6.18
2023-02-01T22:21:12.027Z,5.63
2023-02-01T22:23:38.544Z,5.65
2023-02-01T22:26:09.022Z,4.78
2023-02-01T22:28:36.873Z,5.50
2023-02-01T22:31:06.879Z,4.57
2023-02-01T22:33:34.776Z,4.43
2023-02-01T22:36:02.392Z,6.25
2023-02-01T22:38:33.052Z,5.25
2023-02-01T22:41:05.516Z,5.38
2023-02-01T22:43:33.132Z,5.15
2023-02-01T22:46:01.117Z,7.53
2023-02-01T22:48:29.165Z,6.68
2023-02-01T22:50:57.713Z,5.38
2023-02-01T22:53:24.414Z,10.07
2023-02-01T22:55:51.898Z,8.68
2023-02-01T22:58:19.224Z,7.15
2023-02-01T23:00:46.067Z,7.63
2023-02-01T23:03:12.768Z,7.47
2023-02-01T23:05:39.680Z,7.40
2023-02-01T23:08:06.244Z,7.82
2023-02-01T23:10:32.807Z,11.27
2023-02-01T23:12:59.435Z,7.30
2023-02-01T23:15:26.298Z,6.47
2023-02-01T23:17:53.003Z,6.60
2023-02-01T23:20:19.898Z,6.68
2023-02-01T23:22:49.084Z,6.53
2023-02-01T23:25:18.061Z,6.57
2023-02-01T23:27:44.761Z,8.85
2023-02-01T23:30:12.160Z,6.38
2023-02-01T23:32:38.886Z,8.30
2023-02-01T23:35:07.189Z,6.28
2023-02-01T23:37:34.644Z,7.43
2023-02-01T23:40:01.201Z,5.47
2023-02-01T23:42:27.803Z,7.22
2023-02-01T23:44:54.871Z,7.57
2023-02-01T23:47:21.484Z,6.75
2023-02-01T23:49:48.113Z,6.90
2023-02-01T23:52:14.706Z,7.07
2023-02-01T23:54:41.226Z,7.13
2023-02-01T23:57:07.824Z,8.00
2023-02-01T23:59:34.373Z,5.20
